sensor_id;sensor_type;location;lat;lon;timestamp;P1;durP1;ratioP1;P2;durP2;ratioP2
25932;SDS011;13731;51.166;4.474;2023-04-03T00:02:18;46.70;;;43.78;;
25932;SDS011;13731;51.166;4.474;2023-04-03T00:04:44;51.50;;;47.97;;
25932;SDS011;13731;51.166;4.474;2023-04-03T00:07:10;55.38;;;51.95;;
25932;SDS011;13731;51.166;4.474;2023-04-03T00:09:37;49.92;;;46.83;;
25932;SDS011;13731;51.166;4.474;2023-04-03T00:12:03;45.58;;;42.42;;
25932;SDS011;13731;51.166;4.474;2023-04-03T00:14:29;46.35;;;43.42;;
25932;SDS011;13731;51.166;4.474;2023-04-03T00:16:55;42.42;;;39.80;;
25932;SDS011;13731;51.166;4.474;2023-04-03T00:19:21;46.25;;;43.45;;
25932;SDS011;13731;51.166;4.474;2023-04-03T00:21:47;48.40;;;44.92;;
25932;SDS011;13731;51.166;4.474;2023-04-03T00:24:13;44.78;;;41.90;;
25932;SDS011;13731;51.166;4.474;2023-04-03T00:26:39;39.17;;;36.30;;
25932;SDS011;13731;51.166;4.474;2023-04-03T00:29:05;44.85;;;41.88;;
25932;SDS011;13731;51.166;4.474;2023-04-03T00:31:32;47.60;;;44.08;;
25932;SDS011;13731;51.166;4.474;2023-04-03T00:33:58;39.33;;;36.30;;
25932;SDS011;13731;51.166;4.474;2023-04-03T00:36:23;40.28;;;37.17;;
25932;SDS011;13731;51.166;4.474;2023-04-03T00:38:50;40.55;;;37.72;;
25932;SDS011;13731;51.166;4.474;2023-04-03T00:41:16;39.22;;;36.58;;
25932;SDS011;13731;51.166;4.474;2023-04-03T00:43:43;36.72;;;34.25;;
25932;SDS011;13731;51.166;4.474;2023-04-03T00:46:10;40.47;;;37.55;;
25932;SDS011;13731;51.166;4.474;2023-04-03T00:48:38;37.20;;;34.70;;
25932;SDS011;13731;51.166;4.474;2023-04-03T00:51:10;38.60;;;35.88;;
25932;SDS011;13731;51.166;4.474;2023-04-03T00:53:44;41.83;;;38.83;;
25932;SDS011;13731;51.166;4.474;2023-04-03T00:56:15;40.30;;;37.67;;
25932;SDS011;13731;51.166;4.474;2023-04-03T00:58:47;40.60;;;37.58;;
25932;SDS011;13731;51.166;4.474;2023-04-03T01:01:24;41.08;;;38.08;;
25932;SDS011;13731;51.166;4.474;2023-04-03T01:03:51;41.15;;;38.25;;
25932;SDS011;13731;51.166;4.474;2023-04-03T01:06:20;38.38;;;35.35;;
25932;SDS011;13731;51.166;4.474;2023-04-03T01:08:51;38.75;;;36.25;;
25932;SDS011;13731;51.166;4.474;2023-04-03T01:11:20;35.53;;;33.08;;
25932;SDS011;13731;51.166;4.474;2023-04-03T01:13:47;38.00;;;35.22;;
25932;SDS011;13731;51.166;4.474;2023-04-03T01:16:14;38.33;;;35.72;;
25932;SDS011;13731;51.166;4.474;2023-04-03T01:18:40;36.10;;;33.60;;
25932;SDS011;13731;51.166;4.474;2023-04-03T01:21:21;38.40;;;35.75;;
25932;SDS011;13731;51.166;4.474;2023-04-03T01:24:00;36.97;;;34.15;;
25932;SDS011;13731;51.166;4.474;2023-04-03T01:26:36;39.05;;;36.55;;
25932;SDS011;13731;51.166;4.474;2023-04-03T01:29:02;36.38;;;33.78;;
25932;SDS011;13731;51.166;4.474;2023-04-03T01:34:01;37.70;;;35.17;;
25932;SDS011;13731;51.166;4.474;2023-04-03T01:36:30;36.95;;;34.60;;
25932;SDS011;13731;51.166;4.474;2023-04-03T01:38:58;37.13;;;34.30;;
25932;SDS011;13731;51.166;4.474;2023-04-03T01:41:25;39.53;;;36.55;;
25932;SDS011;13731;51.166;4.474;2023-04-03T01:43:55;36.35;;;33.83;;
25932;SDS011;13731;51.166;4.474;2023-04-03T01:46:22;39.70;;;36.90;;
25932;SDS011;13731;51.166;4.474;2023-04-03T01:48:48;39.78;;;36.95;;
25932;SDS011;13731;51.166;4.474;2023-04-03T01:51:14;40.65;;;37.95;;
25932;SDS011;13731;51.166;4.474;2023-04-03T01:53:40;40.53;;;37.75;;
25932;SDS011;13731;51.166;4.474;2023-04-03T01:56:06;40.63;;;38.00;;
25932;SDS011;13731;51.166;4.474;2023-04-03T01:58:32;37.80;;;35.22;;
25932;SDS011;13731;51.166;4.474;2023-04-03T02:00:58;41.65;;;38.67;;
25932;SDS011;13731;51.166;4.474;2023-04-03T02:03:25;36.80;;;34.20;;
25932;SDS011;13731;51.166;4.474;2023-04-03T02:05:51;39.13;;;36.45;;
25932;SDS011;13731;51.166;4.474;2023-04-03T02:08:17;39.63;;;36.88;;
25932;SDS011;13731;51.166;4.474;2023-04-03T02:10:46;46.50;;;43.55;;
25932;SDS011;13731;51.166;4.474;2023-04-03T02:15:39;51.17;;;47.85;;
25932;SDS011;13731;51.166;4.474;2023-04-03T02:18:06;47.72;;;44.88;;
25932;SDS011;13731;51.166;4.474;2023-04-03T02:20:32;50.47;;;46.88;;
25932;SDS011;13731;51.166;4.474;2023-04-03T02:22:59;52.90;;;49.25;;
25932;SDS011;13731;51.166;4.474;2023-04-03T02:25:25;50.20;;;46.92;;
25932;SDS011;13731;51.166;4.474;2023-04-03T02:27:51;51.47;;;48.20;;
25932;SDS011;13731;51.166;4.474;2023-04-03T02:30:17;49.80;;;46.53;;
25932;SDS011;13731;51.166;4.474;2023-04-03T02:32:43;52.58;;;48.63;;
25932;SDS011;13731;51.166;4.474;2023-04-03T02:35:09;53.78;;;49.88;;
25932;SDS011;13731;51.166;4.474;2023-04-03T02:37:37;52.17;;;48.70;;
25932;SDS011;13731;51.166;4.474;2023-04-03T02:40:04;52.08;;;48.65;;
25932;SDS011;13731;51.166;4.474;2023-04-03T02:42:31;50.08;;;46.80;;
25932;SDS011;13731;51.166;4.474;2023-04-03T02:44:57;51.58;;;47.85;;
25932;SDS011;13731;51.166;4.474;2023-04-03T02:47:23;50.10;;;46.80;;
25932;SDS011;13731;51.166;4.474;2023-04-03T02:49:48;49.28;;;45.53;;
25932;SDS011;13731;51.166;4.474;2023-04-03T02:52:14;51.60;;;48.05;;
25932;SDS011;13731;51.166;4.474;2023-04-03T02:54:40;51.75;;;48.15;;
25932;SDS011;13731;51.166;4.474;2023-04-03T02:57:09;53.95;;;49.92;;
25932;SDS011;13731;51.166;4.474;2023-04-03T02:59:37;47.60;;;44.25;;
25932;SDS011;13731;51.166;4.474;2023-04-03T03:02:08;49.25;;;46.15;;
25932;SDS011;13731;51.166;4.474;2023-04-03T03:04:34;48.78;;;45.70;;
25932;SDS011;13731;51.166;4.474;2023-04-03T03:07:01;51.17;;;48.05;;
25932;SDS011;13731;51.166;4.474;2023-04-03T03:09:27;50.42;;;47.20;;
25932;SDS011;13731;51.166;4.474;2023-04-03T03:11:54;51.28;;;47.75;;
25932;SDS011;13731;51.166;4.474;2023-04-03T03:14:21;49.03;;;46.03;;
25932;SDS011;13731;51.166;4.474;2023-04-03T03:16:47;50.78;;;46.92;;
25932;SDS011;13731;51.166;4.474;2023-04-03T03:19:14;49.20;;;46.13;;
25932;SDS011;13731;51.166;4.474;2023-04-03T03:21:40;52.78;;;49.40;;
25932;SDS011;13731;51.166;4.474;2023-04-03T03:24:06;53.00;;;49.03;;
25932;SDS011;13731;51.166;4.474;2023-04-03T03:26:32;55.40;;;51.83;;
25932;SDS011;13731;51.166;4.474;2023-04-03T03:28:58;50.15;;;46.95;;
25932;SDS011;13731;51.166;4.474;2023-04-03T03:31:25;53.05;;;49.47;;
25932;SDS011;13731;51.166;4.474;2023-04-03T03:33:51;51.38;;;47.97;;
25932;SDS011;13731;51.166;4.474;2023-04-03T03:36:17;50.35;;;47.15;;
25932;SDS011;13731;51.166;4.474;2023-04-03T03:38:43;53.78;;;49.67;;
25932;SDS011;13731;51.166;4.474;2023-04-03T03:41:09;52.72;;;49.05;;
25932;SDS011;13731;51.166;4.474;2023-04-03T03:43:36;48.47;;;45.17;;
25932;SDS011;13731;51.166;4.474;2023-04-03T03:46:03;47.47;;;43.97;;
25932;SDS011;13731;51.166;4.474;2023-04-03T03:48:30;49.75;;;46.30;;
25932;SDS011;13731;51.166;4.474;2023-04-03T03:50:56;47.88;;;44.17;;
25932;SDS011;13731;51.166;4.474;2023-04-03T03:53:26;49.92;;;46.47;;
25932;SDS011;13731;51.166;4.474;2023-04-03T03:55:55;51.20;;;48.00;;
25932;SDS011;13731;51.166;4.474;2023-04-03T03:58:24;50.90;;;47.20;;
25932;SDS011;13731;51.166;4.474;2023-04-03T04:00:50;50.55;;;46.92;;
25932;SDS011;13731;51.166;4.474;2023-04-03T04:03:16;47.60;;;44.38;;
25932;SDS011;13731;51.166;4.474;2023-04-03T04:05:45;54.40;;;50.83;;
25932;SDS011;13731;51.166;4.474;2023-04-03T04:08:12;48.72;;;45.42;;
25932;SDS011;13731;51.166;4.474;2023-04-03T04:10:38;53.80;;;50.10;;
25932;SDS011;13731;51.166;4.474;2023-04-03T04:13:05;45.95;;;42.85;;
25932;SDS011;13731;51.166;4.474;2023-04-03T04:15:31;48.05;;;44.75;;
25932;SDS011;13731;51.166;4.474;2023-04-03T04:17:57;46.42;;;42.70;;
25932;SDS011;13731;51.166;4.474;2023-04-03T04:20:23;48.55;;;45.05;;
25932;SDS011;13731;51.166;4.474;2023-04-03T04:22:49;50.50;;;46.92;;
25932;SDS011;13731;51.166;4.474;2023-04-03T04:25:18;49.10;;;45.38;;
25932;SDS011;13731;51.166;4.474;2023-04-03T04:27:44;46.58;;;43.17;;
25932;SDS011;13731;51.166;4.474;2023-04-03T04:30:13;49.40;;;45.58;;
25932;SDS011;13731;51.166;4.474;2023-04-03T04:32:39;47.53;;;44.17;;
25932;SDS011;13731;51.166;4.474;2023-04-03T04:35:05;48.42;;;44.92;;
25932;SDS011;13731;51.166;4.474;2023-04-03T04:37:34;48.58;;;45.13;;
25932;SDS011;13731;51.166;4.474;2023-04-03T04:40:00;49.83;;;46.22;;
25932;SDS011;13731;51.166;4.474;2023-04-03T04:42:27;51.47;;;47.80;;
25932;SDS011;13731;51.166;4.474;2023-04-03T04:44:53;51.63;;;47.72;;
25932;SDS011;13731;51.166;4.474;2023-04-03T04:47:19;50.50;;;46.13;;
25932;SDS011;13731;51.166;4.474;2023-04-03T04:49:45;48.47;;;45.08;;
25932;SDS011;13731;51.166;4.474;2023-04-03T04:52:13;46.55;;;43.17;;
25932;SDS011;13731;51.166;4.474;2023-04-03T04:54:40;57.88;;;54.20;;
25932;SDS011;13731;51.166;4.474;2023-04-03T04:57:06;49.50;;;45.95;;
25932;SDS011;13731;51.166;4.474;2023-04-03T04:59:32;46.63;;;43.17;;
25932;SDS011;13731;51.166;4.474;2023-04-03T05:01:58;47.80;;;43.55;;
25932;SDS011;13731;51.166;4.474;2023-04-03T05:04:25;48.38;;;45.10;;
25932;SDS011;13731;51.166;4.474;2023-04-03T05:06:57;50.67;;;47.15;;
25932;SDS011;13731;51.166;4.474;2023-04-03T05:09:26;45.05;;;41.47;;
25932;SDS011;13731;51.166;4.474;2023-04-03T05:11:52;54.28;;;50.28;;
25932;SDS011;13731;51.166;4.474;2023-04-03T05:16:48;43.90;;;40.03;;
25932;SDS011;13731;51.166;4.474;2023-04-03T05:19:19;48.78;;;44.83;;
25932;SDS011;13731;51.166;4.474;2023-04-03T05:21:48;47.05;;;43.55;;
25932;SDS011;13731;51.166;4.474;2023-04-03T05:24:15;44.83;;;41.50;;
25932;SDS011;13731;51.166;4.474;2023-04-03T05:26:42;45.95;;;41.58;;
25932;SDS011;13731;51.166;4.474;2023-04-03T05:29:10;44.88;;;41.25;;
25932;SDS011;13731;51.166;4.474;2023-04-03T05:31:37;44.45;;;40.75;;
25932;SDS011;13731;51.166;4.474;2023-04-03T05:34:04;45.50;;;42.13;;
25932;SDS011;13731;51.166;4.474;2023-04-03T05:36:34;45.03;;;41.40;;
25932;SDS011;13731;51.166;4.474;2023-04-03T05:39:03;43.67;;;40.05;;
25932;SDS011;13731;51.166;4.474;2023-04-03T05:41:30;38.88;;;35.50;;
25932;SDS011;13731;51.166;4.474;2023-04-03T05:43:56;40.17;;;36.80;;
25932;SDS011;13731;51.166;4.474;2023-04-03T05:46:24;44.03;;;39.57;;
25932;SDS011;13731;51.166;4.474;2023-04-03T05:48:54;42.53;;;38.30;;
25932;SDS011;13731;51.166;4.474;2023-04-03T05:51:28;42.47;;;38.80;;
25932;SDS011;13731;51.166;4.474;2023-04-03T05:54:13;39.58;;;36.17;;
25932;SDS011;13731;51.166;4.474;2023-04-03T05:56:49;40.88;;;37.33;;
25932;SDS011;13731;51.166;4.474;2023-04-03T05:59:16;39.42;;;35.92;;
25932;SDS011;13731;51.166;4.474;2023-04-03T06:01:43;42.20;;;38.90;;
25932;SDS011;13731;51.166;4.474;2023-04-03T06:04:10;40.80;;;37.60;;
25932;SDS011;13731;51.166;4.474;2023-04-03T06:06:53;43.30;;;39.90;;
25932;SDS011;13731;51.166;4.474;2023-04-03T06:09:25;42.25;;;38.88;;
25932;SDS011;13731;51.166;4.474;2023-04-03T06:11:54;40.15;;;36.85;;
25932;SDS011;13731;51.166;4.474;2023-04-03T06:14:22;38.83;;;35.78;;
25932;SDS011;13731;51.166;4.474;2023-04-03T06:16:48;41.75;;;38.28;;
25932;SDS011;13731;51.166;4.474;2023-04-03T06:19:14;39.45;;;36.45;;
25932;SDS011;13731;51.166;4.474;2023-04-03T06:21:45;40.28;;;37.13;;
25932;SDS011;13731;51.166;4.474;2023-04-03T06:24:14;40.92;;;38.08;;
25932;SDS011;13731;51.166;4.474;2023-04-03T06:26:41;47.67;;;44.17;;
25932;SDS011;13731;51.166;4.474;2023-04-03T06:29:08;37.88;;;35.08;;
25932;SDS011;13731;51.166;4.474;2023-04-03T06:31:34;40.05;;;37.33;;
25932;SDS011;13731;51.166;4.474;2023-04-03T06:34:02;41.45;;;37.83;;
25932;SDS011;13731;51.166;4.474;2023-04-03T06:36:28;42.90;;;39.20;;
25932;SDS011;13731;51.166;4.474;2023-04-03T06:38:55;37.05;;;34.38;;
25932;SDS011;13731;51.166;4.474;2023-04-03T06:41:21;39.03;;;36.08;;
25932;SDS011;13731;51.166;4.474;2023-04-03T06:43:47;37.92;;;35.53;;
25932;SDS011;13731;51.166;4.474;2023-04-03T06:46:19;38.50;;;35.28;;
25932;SDS011;13731;51.166;4.474;2023-04-03T06:48:47;35.00;;;32.50;;
25932;SDS011;13731;51.166;4.474;2023-04-03T06:51:17;38.33;;;35.30;;
25932;SDS011;13731;51.166;4.474;2023-04-03T06:53:52;37.58;;;34.58;;
25932;SDS011;13731;51.166;4.474;2023-04-03T06:56:19;34.75;;;32.65;;
25932;SDS011;13731;51.166;4.474;2023-04-03T06:58:45;32.50;;;30.00;;
25932;SDS011;13731;51.166;4.474;2023-04-03T07:01:12;33.70;;;31.17;;
25932;SDS011;13731;51.166;4.474;2023-04-03T07:03:39;35.95;;;33.67;;
25932;SDS011;13731;51.166;4.474;2023-04-03T07:06:06;33.47;;;31.48;;
25932;SDS011;13731;51.166;4.474;2023-04-03T07:08:33;35.67;;;33.00;;
25932;SDS011;13731;51.166;4.474;2023-04-03T07:11:00;37.83;;;35.33;;
25932;SDS011;13731;51.166;4.474;2023-04-03T07:13:26;39.22;;;36.70;;
25932;SDS011;13731;51.166;4.474;2023-04-03T07:15:52;37.90;;;35.65;;
25932;SDS011;13731;51.166;4.474;2023-04-03T07:18:18;37.70;;;35.40;;
25932;SDS011;13731;51.166;4.474;2023-04-03T07:20:44;35.78;;;33.53;;
25932;SDS011;13731;51.166;4.474;2023-04-03T07:23:10;33.92;;;31.75;;
25932;SDS011;13731;51.166;4.474;2023-04-03T07:25:37;33.80;;;31.30;;
25932;SDS011;13731;51.166;4.474;2023-04-03T07:28:07;30.27;;;28.30;;
25932;SDS011;13731;51.166;4.474;2023-04-03T07:30:33;29.77;;;28.08;;
25932;SDS011;13731;51.166;4.474;2023-04-03T07:33:00;31.98;;;29.80;;
25932;SDS011;13731;51.166;4.474;2023-04-03T07:35:26;32.65;;;29.98;;
25932;SDS011;13731;51.166;4.474;2023-04-03T07:37:52;33.35;;;30.38;;
25932;SDS011;13731;51.166;4.474;2023-04-03T07:40:18;35.42;;;33.17;;
25932;SDS011;13731;51.166;4.474;2023-04-03T07:42:44;30.08;;;27.60;;
25932;SDS011;13731;51.166;4.474;2023-04-03T07:45:10;28.63;;;26.70;;
25932;SDS011;13731;51.166;4.474;2023-04-03T07:47:36;31.30;;;29.50;;
25932;SDS011;13731;51.166;4.474;2023-04-03T07:50:02;30.08;;;27.70;;
25932;SDS011;13731;51.166;4.474;2023-04-03T07:52:28;30.67;;;28.63;;
25932;SDS011;13731;51.166;4.474;2023-04-03T07:54:54;31.58;;;29.45;;
25932;SDS011;13731;51.166;4.474;2023-04-03T07:57:20;31.35;;;29.15;;
25932;SDS011;13731;51.166;4.474;2023-04-03T07:59:46;26.92;;;25.45;;
25932;SDS011;13731;51.166;4.474;2023-04-03T08:02:12;28.17;;;26.55;;
25932;SDS011;13731;51.166;4.474;2023-04-03T08:04:37;28.05;;;26.15;;
25932;SDS011;13731;51.166;4.474;2023-04-03T08:07:03;28.75;;;27.00;;
25932;SDS011;13731;51.166;4.474;2023-04-03T08:09:29;30.05;;;28.20;;
25932;SDS011;13731;51.166;4.474;2023-04-03T08:11:57;28.13;;;26.00;;
25932;SDS011;13731;51.166;4.474;2023-04-03T08:14:23;30.30;;;28.50;;
25932;SDS011;13731;51.166;4.474;2023-04-03T08:16:49;26.02;;;24.40;;
25932;SDS011;13731;51.166;4.474;2023-04-03T08:19:15;29.83;;;27.88;;
25932;SDS011;13731;51.166;4.474;2023-04-03T08:21:43;29.83;;;27.63;;
25932;SDS011;13731;51.166;4.474;2023-04-03T08:24:10;26.20;;;24.50;;
25932;SDS011;13731;51.166;4.474;2023-04-03T08:26:36;27.58;;;25.83;;
25932;SDS011;13731;51.166;4.474;2023-04-03T08:29:03;20.98;;;19.35;;
25932;SDS011;13731;51.166;4.474;2023-04-03T08:31:29;24.00;;;22.25;;
25932;SDS011;13731;51.166;4.474;2023-04-03T08:33:56;22.70;;;21.17;;
25932;SDS011;13731;51.166;4.474;2023-04-03T08:36:23;19.77;;;18.48;;
25932;SDS011;13731;51.166;4.474;2023-04-03T08:38:54;15.93;;;14.82;;
25932;SDS011;13731;51.166;4.474;2023-04-03T08:49:52;16.70;;;15.57;;
25932;SDS011;13731;51.166;4.474;2023-04-03T08:58:02;18.90;;;17.67;;
25932;SDS011;13731;51.166;4.474;2023-04-03T09:00:49;17.95;;;16.83;;
25932;SDS011;13731;51.166;4.474;2023-04-03T09:03:19;16.70;;;15.32;;
25932;SDS011;13731;51.166;4.474;2023-04-03T09:08:21;31.10;;;29.23;;
25932;SDS011;13731;51.166;4.474;2023-04-03T09:10:58;29.27;;;27.58;;
25932;SDS011;13731;51.166;4.474;2023-04-03T09:14:02;25.50;;;24.25;;
25932;SDS011;13731;51.166;4.474;2023-04-03T09:21:38;28.80;;;27.20;;
25932;SDS011;13731;51.166;4.474;2023-04-03T09:24:09;30.40;;;28.52;;
25932;SDS011;13731;51.166;4.474;2023-04-03T09:26:45;30.75;;;28.98;;
25932;SDS011;13731;51.166;4.474;2023-04-03T09:29:21;24.08;;;22.48;;
25932;SDS011;13731;51.166;4.474;2023-04-03T09:31:49;21.67;;;20.48;;
25932;SDS011;13731;51.166;4.474;2023-04-03T09:36:57;25.10;;;23.58;;
25932;SDS011;13731;51.166;4.474;2023-04-03T09:39:25;23.10;;;21.57;;
25932;SDS011;13731;51.166;4.474;2023-04-03T09:41:55;22.63;;;21.42;;
25932;SDS011;13731;51.166;4.474;2023-04-03T09:44:27;20.98;;;19.77;;
25932;SDS011;13731;51.166;4.474;2023-04-03T09:46:58;19.67;;;18.48;;
25932;SDS011;13731;51.166;4.474;2023-04-03T09:49:25;25.73;;;23.85;;
25932;SDS011;13731;51.166;4.474;2023-04-03T09:51:51;21.02;;;19.67;;
25932;SDS011;13731;51.166;4.474;2023-04-03T09:54:39;24.10;;;22.05;;
25932;SDS011;13731;51.166;4.474;2023-04-03T09:57:07;22.92;;;21.63;;
25932;SDS011;13731;51.166;4.474;2023-04-03T09:59:36;26.60;;;24.15;;
25932;SDS011;13731;51.166;4.474;2023-04-03T10:04:53;18.40;;;17.38;;
25932;SDS011;13731;51.166;4.474;2023-04-03T10:07:26;15.65;;;14.30;;
25932;SDS011;13731;51.166;4.474;2023-04-03T10:09:58;14.27;;;13.15;;
25932;SDS011;13731;51.166;4.474;2023-04-03T10:12:43;12.63;;;11.93;;
25932;SDS011;13731;51.166;4.474;2023-04-03T10:15:12;11.52;;;10.63;;
25932;SDS011;13731;51.166;4.474;2023-04-03T10:20:35;8.73;;;8.13;;
25932;SDS011;13731;51.166;4.474;2023-04-03T10:31:13;11.55;;;10.85;;
25932;SDS011;13731;51.166;4.474;2023-04-03T10:39:26;9.73;;;9.23;;
25932;SDS011;13731;51.166;4.474;2023-04-03T10:42:08;9.60;;;8.70;;
25932;SDS011;13731;51.166;4.474;2023-04-03T10:47:40;8.43;;;7.85;;
25932;SDS011;13731;51.166;4.474;2023-04-03T10:53:36;8.63;;;8.02;;
25932;SDS011;13731;51.166;4.474;2023-04-03T10:56:40;8.73;;;7.95;;
25932;SDS011;13731;51.166;4.474;2023-04-03T11:01:56;9.43;;;7.60;;
25932;SDS011;13731;51.166;4.474;2023-04-03T11:04:26;7.68;;;7.07;;
25932;SDS011;13731;51.166;4.474;2023-04-03T11:07:00;8.38;;;7.78;;
25932;SDS011;13731;51.166;4.474;2023-04-03T11:09:34;7.57;;;7.28;;
25932;SDS011;13731;51.166;4.474;2023-04-03T11:14:53;7.70;;;7.30;;
25932;SDS011;13731;51.166;4.474;2023-04-03T11:17:35;7.90;;;7.50;;
25932;SDS011;13731;51.166;4.474;2023-04-03T11:25:43;6.75;;;6.30;;
25932;SDS011;13731;51.166;4.474;2023-04-03T11:28:12;6.43;;;6.13;;
25932;SDS011;13731;51.166;4.474;2023-04-03T11:35:53;6.47;;;5.97;;
25932;SDS011;13731;51.166;4.474;2023-04-03T11:38:24;6.43;;;6.13;;
25932;SDS011;13731;51.166;4.474;2023-04-03T11:40:59;7.10;;;6.70;;
25932;SDS011;13731;51.166;4.474;2023-04-03T11:45:57;13.90;;;12.90;;
25932;SDS011;13731;51.166;4.474;2023-04-03T11:50:54;14.10;;;13.30;;
25932;SDS011;13731;51.166;4.474;2023-04-03T11:53:39;9.98;;;9.48;;
25932;SDS011;13731;51.166;4.474;2023-04-03T11:56:26;8.80;;;8.50;;
25932;SDS011;13731;51.166;4.474;2023-04-03T12:04:17;8.45;;;8.05;;
25932;SDS011;13731;51.166;4.474;2023-04-03T12:11:52;6.55;;;6.15;;
25932;SDS011;13731;51.166;4.474;2023-04-03T12:14:22;7.00;;;6.60;;
25932;SDS011;13731;51.166;4.474;2023-04-03T12:16:50;6.70;;;6.35;;
25932;SDS011;13731;51.166;4.474;2023-04-03T12:24:34;8.82;;;8.18;;
25932;SDS011;13731;51.166;4.474;2023-04-03T12:29:45;7.80;;;7.38;;
25932;SDS011;13731;51.166;4.474;2023-04-03T12:46:15;7.93;;;7.63;;
25932;SDS011;13731;51.166;4.474;2023-04-03T12:51:13;7.05;;;6.75;;
25932;SDS011;13731;51.166;4.474;2023-04-03T12:53:42;7.43;;;7.03;;
25932;SDS011;13731;51.166;4.474;2023-04-03T12:56:26;7.18;;;6.80;;
25932;SDS011;13731;51.166;4.474;2023-04-03T12:58:55;7.75;;;7.18;;
25932;SDS011;13731;51.166;4.474;2023-04-03T13:01:37;7.25;;;6.75;;
25932;SDS011;13731;51.166;4.474;2023-04-03T13:04:04;6.70;;;6.30;;
25932;SDS011;13731;51.166;4.474;2023-04-03T13:06:31;6.22;;;5.90;;
25932;SDS011;13731;51.166;4.474;2023-04-03T13:09:06;5.70;;;5.32;;
25932;SDS011;13731;51.166;4.474;2023-04-03T13:11:43;6.15;;;5.75;;
25932;SDS011;13731;51.166;4.474;2023-04-03T13:14:18;6.95;;;6.45;;
25932;SDS011;13731;51.166;4.474;2023-04-03T13:17:05;6.90;;;6.38;;
25932;SDS011;13731;51.166;4.474;2023-04-03T13:19:37;6.00;;;5.70;;
25932;SDS011;13731;51.166;4.474;2023-04-03T13:22:05;7.15;;;6.18;;
25932;SDS011;13731;51.166;4.474;2023-04-03T13:24:42;5.90;;;5.60;;
25932;SDS011;13731;51.166;4.474;2023-04-03T13:27:10;5.68;;;5.40;;
25932;SDS011;13731;51.166;4.474;2023-04-03T13:29:37;6.68;;;6.18;;
25932;SDS011;13731;51.166;4.474;2023-04-03T13:32:05;6.53;;;6.22;;
25932;SDS011;13731;51.166;4.474;2023-04-03T13:34:37;6.00;;;5.60;;
25932;SDS011;13731;51.166;4.474;2023-04-03T13:37:06;5.47;;;5.18;;
25932;SDS011;13731;51.166;4.474;2023-04-03T13:39:43;6.13;;;5.75;;
25932;SDS011;13731;51.166;4.474;2023-04-03T13:42:20;5.60;;;5.30;;
25932;SDS011;13731;51.166;4.474;2023-04-03T13:44:48;7.25;;;6.60;;
25932;SDS011;13731;51.166;4.474;2023-04-03T13:47:16;7.88;;;7.47;;
25932;SDS011;13731;51.166;4.474;2023-04-03T13:49:45;8.20;;;7.63;;
25932;SDS011;13731;51.166;4.474;2023-04-03T13:52:33;9.25;;;8.85;;
25932;SDS011;13731;51.166;4.474;2023-04-03T13:55:20;8.98;;;8.30;;
25932;SDS011;13731;51.166;4.474;2023-04-03T13:58:29;8.20;;;7.60;;
25932;SDS011;13731;51.166;4.474;2023-04-03T14:03:11;7.35;;;6.95;;
25932;SDS011;13731;51.166;4.474;2023-04-03T14:05:49;8.63;;;8.02;;
25932;SDS011;13731;51.166;4.474;2023-04-03T14:08:16;9.75;;;9.25;;
25932;SDS011;13731;51.166;4.474;2023-04-03T14:10:42;8.88;;;8.38;;
25932;SDS011;13731;51.166;4.474;2023-04-03T14:13:15;9.75;;;9.15;;
25932;SDS011;13731;51.166;4.474;2023-04-03T14:15:45;9.30;;;8.90;;
25932;SDS011;13731;51.166;4.474;2023-04-03T14:18:15;10.13;;;9.48;;
25932;SDS011;13731;51.166;4.474;2023-04-03T14:20:43;9.43;;;8.82;;
25932;SDS011;13731;51.166;4.474;2023-04-03T14:23:09;9.05;;;8.55;;
25932;SDS011;13731;51.166;4.474;2023-04-03T14:25:36;9.73;;;9.18;;
25932;SDS011;13731;51.166;4.474;2023-04-03T14:30:58;9.75;;;9.02;;
25932;SDS011;13731;51.166;4.474;2023-04-03T14:33:24;10.52;;;9.93;;
25932;SDS011;13731;51.166;4.474;2023-04-03T14:35:52;10.38;;;9.88;;
25932;SDS011;13731;51.166;4.474;2023-04-03T14:38:26;9.80;;;9.20;;
25932;SDS011;13731;51.166;4.474;2023-04-03T14:40:54;7.47;;;6.72;;
25932;SDS011;13731;51.166;4.474;2023-04-03T14:43:20;8.63;;;7.82;;
25932;SDS011;13731;51.166;4.474;2023-04-03T14:45:48;9.48;;;8.77;;
25932;SDS011;13731;51.166;4.474;2023-04-03T14:48:21;7.82;;;7.43;;
25932;SDS011;13731;51.166;4.474;2023-04-03T14:50:50;6.90;;;6.53;;
25932;SDS011;13731;51.166;4.474;2023-04-03T14:53:17;7.28;;;6.72;;
25932;SDS011;13731;51.166;4.474;2023-04-03T14:55:48;7.90;;;7.40;;
25932;SDS011;13731;51.166;4.474;2023-04-03T14:58:18;8.40;;;7.60;;
25932;SDS011;13731;51.166;4.474;2023-04-03T15:00:46;6.97;;;6.57;;
25932;SDS011;13731;51.166;4.474;2023-04-03T15:03:21;8.10;;;7.72;;
25932;SDS011;13731;51.166;4.474;2023-04-03T15:05:48;8.70;;;8.25;;
25932;SDS011;13731;51.166;4.474;2023-04-03T15:08:21;9.85;;;9.15;;
25932;SDS011;13731;51.166;4.474;2023-04-03T15:10:50;9.60;;;9.10;;
25932;SDS011;13731;51.166;4.474;2023-04-03T15:13:18;9.32;;;8.93;;
25932;SDS011;13731;51.166;4.474;2023-04-03T15:15:45;11.52;;;11.05;;
25932;SDS011;13731;51.166;4.474;2023-04-03T15:18:16;11.45;;;10.88;;
25932;SDS011;13731;51.166;4.474;2023-04-03T15:20:48;10.18;;;9.70;;
25932;SDS011;13731;51.166;4.474;2023-04-03T15:23:15;11.60;;;10.90;;
25932;SDS011;13731;51.166;4.474;2023-04-03T15:25:42;15.25;;;12.00;;
25932;SDS011;13731;51.166;4.474;2023-04-03T15:28:13;11.45;;;10.75;;
25932;SDS011;13731;51.166;4.474;2023-04-03T15:30:43;10.05;;;9.55;;
25932;SDS011;13731;51.166;4.474;2023-04-03T15:33:09;11.25;;;10.45;;
25932;SDS011;13731;51.166;4.474;2023-04-03T15:35:35;11.45;;;10.80;;
25932;SDS011;13731;51.166;4.474;2023-04-03T15:38:01;11.60;;;11.00;;
25932;SDS011;13731;51.166;4.474;2023-04-03T15:40:27;15.20;;;14.38;;
25932;SDS011;13731;51.166;4.474;2023-04-03T15:42:53;12.18;;;11.48;;
25932;SDS011;13731;51.166;4.474;2023-04-03T15:45:19;13.15;;;12.27;;
25932;SDS011;13731;51.166;4.474;2023-04-03T15:47:46;11.80;;;11.20;;
25932;SDS011;13731;51.166;4.474;2023-04-03T15:50:12;13.93;;;13.23;;
25932;SDS011;13731;51.166;4.474;2023-04-03T15:52:38;10.82;;;10.05;;
25932;SDS011;13731;51.166;4.474;2023-04-03T15:55:04;11.52;;;10.90;;
25932;SDS011;13731;51.166;4.474;2023-04-03T15:57:31;10.48;;;9.70;;
25932;SDS011;13731;51.166;4.474;2023-04-03T15:59:57;10.48;;;9.68;;
25932;SDS011;13731;51.166;4.474;2023-04-03T16:02:22;9.85;;;9.25;;
25932;SDS011;13731;51.166;4.474;2023-04-03T16:04:49;11.82;;;10.82;;
25932;SDS011;13731;51.166;4.474;2023-04-03T16:07:15;11.57;;;10.98;;
25932;SDS011;13731;51.166;4.474;2023-04-03T16:09:40;8.73;;;8.32;;
25932;SDS011;13731;51.166;4.474;2023-04-03T16:12:06;8.32;;;7.82;;
25932;SDS011;13731;51.166;4.474;2023-04-03T16:14:32;9.02;;;8.23;;
25932;SDS011;13731;51.166;4.474;2023-04-03T16:16:58;9.10;;;8.50;;
25932;SDS011;13731;51.166;4.474;2023-04-03T16:19:25;7.78;;;7.45;;
25932;SDS011;13731;51.166;4.474;2023-04-03T16:21:52;8.38;;;7.57;;
25932;SDS011;13731;51.166;4.474;2023-04-03T16:24:19;7.97;;;7.22;;
25932;SDS011;13731;51.166;4.474;2023-04-03T16:26:45;8.43;;;7.68;;
25932;SDS011;13731;51.166;4.474;2023-04-03T16:29:11;7.75;;;7.35;;
25932;SDS011;13731;51.166;4.474;2023-04-03T16:31:37;7.18;;;6.63;;
25932;SDS011;13731;51.166;4.474;2023-04-03T16:34:03;8.52;;;7.88;;
25932;SDS011;13731;51.166;4.474;2023-04-03T16:36:30;8.50;;;7.90;;
25932;SDS011;13731;51.166;4.474;2023-04-03T16:38:56;8.38;;;7.80;;